sensor_id;sensor_type;location;lat;lon;timestamp;temperature;humidity
22633;DHT22;11483;55.828;37.488;2023-07-16T00:00:59;16.20;99.90
22633;DHT22;11483;55.828;37.488;2023-07-16T00:03:25;16.10;99.90
22633;DHT22;11483;55.828;37.488;2023-07-16T00:05:51;16.10;99.90
22633;DHT22;11483;55.828;37.488;2023-07-16T00:08:17;16.10;99.90
22633;DHT22;11483;55.828;37.488;2023-07-16T00:10:43;16.10;99.90
22633;DHT22;11483;55.828;37.488;2023-07-16T00:13:08;16.10;99.90
22633;DHT22;11483;55.828;37.488;2023-07-16T00:15:34;16.10;99.90
22633;DHT22;11483;55.828;37.488;2023-07-16T00:18:00;16.10;99.90
22633;DHT22;11483;55.828;37.488;2023-07-16T00:20:26;16.10;99.90
22633;DHT22;11483;55.828;37.488;2023-07-16T00:22:53;16.10;99.90
22633;DHT22;11483;55.828;37.488;2023-07-16T00:25:19;16.10;99.90
22633;DHT22;11483;55.828;37.488;2023-07-16T00:27:46;16.10;99.90
22633;DHT22;11483;55.828;37.488;2023-07-16T00:30:12;16.10;99.90
22633;DHT22;11483;55.828;37.488;2023-07-16T00:32:38;16.20;99.90
22633;DHT22;11483;55.828;37.488;2023-07-16T00:35:05;16.20;99.90
22633;DHT22;11483;55.828;37.488;2023-07-16T00:37:31;16.10;99.90
22633;DHT22;11483;55.828;37.488;2023-07-16T00:39:57;16.20;99.90
22633;DHT22;11483;55.828;37.488;2023-07-16T00:42:23;16.20;99.90
22633;DHT22;11483;55.828;37.488;2023-07-16T00:44:48;16.20;99.90
22633;DHT22;11483;55.828;37.488;2023-07-16T00:47:14;16.20;99.90
22633;DHT22;11483;55.828;37.488;2023-07-16T00:49:40;16.20;99.90
22633;DHT22;11483;55.828;37.488;2023-07-16T00:52:09;16.20;99.90
22633;DHT22;11483;55.828;37.488;2023-07-16T00:54:38;16.30;99.90
22633;DHT22;11483;55.828;37.488;2023-07-16T00:57:04;16.30;99.90
22633;DHT22;11483;55.828;37.488;2023-07-16T00:59:30;16.30;99.90
22633;DHT22;11483;55.828;37.488;2023-07-16T01:01:56;16.30;99.90
22633;DHT22;11483;55.828;37.488;2023-07-16T01:04:22;16.30;99.90
22633;DHT22;11483;55.828;37.488;2023-07-16T01:06:51;16.30;99.90
22633;DHT22;11483;55.828;37.488;2023-07-16T01:09:20;16.30;99.90
22633;DHT22;11483;55.828;37.488;2023-07-16T01:11:47;16.30;99.90
22633;DHT22;11483;55.828;37.488;2023-07-16T01:14:16;16.30;99.90
22633;DHT22;11483;55.828;37.488;2023-07-16T01:16:43;16.30;99.90
22633;DHT22;11483;55.828;37.488;2023-07-16T01:19:09;16.30;99.90
22633;DHT22;11483;55.828;37.488;2023-07-16T01:25:29;16.30;99.90
22633;DHT22;11483;55.828;37.488;2023-07-16T01:30:39;16.30;99.90
22633;DHT22;11483;55.828;37.488;2023-07-16T01:33:08;16.30;99.90
22633;DHT22;11483;55.828;37.488;2023-07-16T01:35:35;16.30;99.90
22633;DHT22;11483;55.828;37.488;2023-07-16T01:38:02;16.30;99.90
22633;DHT22;11483;55.828;37.488;2023-07-16T01:40:27;16.20;99.90
22633;DHT22;11483;55.828;37.488;2023-07-16T01:42:55;16.20;99.90
22633;DHT22;11483;55.828;37.488;2023-07-16T01:45:21;16.20;99.90
22633;DHT22;11483;55.828;37.488;2023-07-16T01:50:18;16.30;99.90
22633;DHT22;11483;55.828;37.488;2023-07-16T01:52:44;16.30;99.90
22633;DHT22;11483;55.828;37.488;2023-07-16T01:55:10;16.40;99.90
22633;DHT22;11483;55.828;37.488;2023-07-16T01:57:36;16.40;99.90
22633;DHT22;11483;55.828;37.488;2023-07-16T02:00:02;16.50;99.90
22633;DHT22;11483;55.828;37.488;2023-07-16T02:02:28;16.50;99.90
22633;DHT22;11483;55.828;37.488;2023-07-16T02:04:54;16.50;99.90
22633;DHT22;11483;55.828;37.488;2023-07-16T02:07:20;16.60;99.90
22633;DHT22;11483;55.828;37.488;2023-07-16T02:09:46;16.60;99.90
22633;DHT22;11483;55.828;37.488;2023-07-16T02:12:12;16.60;99.90
22633;DHT22;11483;55.828;37.488;2023-07-16T02:14:37;16.60;99.90
22633;DHT22;11483;55.828;37.488;2023-07-16T02:17:03;16.60;99.90
22633;DHT22;11483;55.828;37.488;2023-07-16T02:19:29;16.60;99.90
22633;DHT22;11483;55.828;37.488;2023-07-16T02:21:55;16.50;99.90
22633;DHT22;11483;55.828;37.488;2023-07-16T02:24:21;16.50;99.90
22633;DHT22;11483;55.828;37.488;2023-07-16T02:26:47;16.60;99.90
22633;DHT22;11483;55.828;37.488;2023-07-16T02:29:12;16.50;99.90
22633;DHT22;11483;55.828;37.488;2023-07-16T02:31:38;16.50;99.90
22633;DHT22;11483;55.828;37.488;2023-07-16T02:34:04;16.40;99.90
22633;DHT22;11483;55.828;37.488;2023-07-16T02:36:30;16.40;99.90
22633;DHT22;11483;55.828;37.488;2023-07-16T02:38:56;16.40;99.90
22633;DHT22;11483;55.828;37.488;2023-07-16T02:41:22;16.40;99.90
22633;DHT22;11483;55.828;37.488;2023-07-16T02:43:47;16.40;99.90
22633;DHT22;11483;55.828;37.488;2023-07-16T02:46:13;16.50;99.90
22633;DHT22;11483;55.828;37.488;2023-07-16T02:48:39;16.50;99.90
22633;DHT22;11483;55.828;37.488;2023-07-16T02:51:05;16.50;99.90
22633;DHT22;11483;55.828;37.488;2023-07-16T02:53:31;16.50;99.90
22633;DHT22;11483;55.828;37.488;2023-07-16T02:55:56;16.50;99.90
22633;DHT22;11483;55.828;37.488;2023-07-16T02:58:22;16.50;99.90
22633;DHT22;11483;55.828;37.488;2023-07-16T03:00:48;16.50;99.90
22633;DHT22;11483;55.828;37.488;2023-07-16T03:03:14;16.60;99.90
22633;DHT22;11483;55.828;37.488;2023-07-16T03:05:40;16.60;99.90
22633;DHT22;11483;55.828;37.488;2023-07-16T03:08:06;16.60;99.90
22633;DHT22;11483;55.828;37.488;2023-07-16T03:10:32;16.60;99.90
22633;DHT22;11483;55.828;37.488;2023-07-16T03:12:58;16.70;99.90
22633;DHT22;11483;55.828;37.488;2023-07-16T03:15:24;16.70;99.90
22633;DHT22;11483;55.828;37.488;2023-07-16T03:17:49;16.80;99.90
22633;DHT22;11483;55.828;37.488;2023-07-16T03:20:15;16.80;99.90
22633;DHT22;11483;55.828;37.488;2023-07-16T03:22:41;16.80;99.90
22633;DHT22;11483;55.828;37.488;2023-07-16T03:25:07;16.90;99.90
22633;DHT22;11483;55.828;37.488;2023-07-16T03:27:33;16.90;99.90
22633;DHT22;11483;55.828;37.488;2023-07-16T03:29:59;16.90;99.90
22633;DHT22;11483;55.828;37.488;2023-07-16T03:32:25;17.00;99.90
22633;DHT22;11483;55.828;37.488;2023-07-16T03:34:51;17.10;99.90
22633;DHT22;11483;55.828;37.488;2023-07-16T03:37:17;17.20;99.90
22633;DHT22;11483;55.828;37.488;2023-07-16T03:39:43;17.10;99.90
22633;DHT22;11483;55.828;37.488;2023-07-16T03:42:08;17.20;99.90
22633;DHT22;11483;55.828;37.488;2023-07-16T03:44:34;17.20;99.90
22633;DHT22;11483;55.828;37.488;2023-07-16T03:47:00;17.20;99.90
22633;DHT22;11483;55.828;37.488;2023-07-16T03:49:26;17.30;99.90
22633;DHT22;11483;55.828;37.488;2023-07-16T03:51:52;17.50;99.90
22633;DHT22;11483;55.828;37.488;2023-07-16T03:54:17;17.60;99.90
22633;DHT22;11483;55.828;37.488;2023-07-16T03:56:43;17.60;99.90
22633;DHT22;11483;55.828;37.488;2023-07-16T03:59:09;17.60;99.90
22633;DHT22;11483;55.828;37.488;2023-07-16T04:01:35;17.60;99.90
22633;DHT22;11483;55.828;37.488;2023-07-16T04:04:01;17.60;99.90
22633;DHT22;11483;55.828;37.488;2023-07-16T04:06:27;17.50;99.90
22633;DHT22;11483;55.828;37.488;2023-07-16T04:08:53;17.40;99.90
22633;DHT22;11483;55.828;37.488;2023-07-16T04:11:18;17.50;99.90
22633;DHT22;11483;55.828;37.488;2023-07-16T04:13:44;17.50;99.90
22633;DHT22;11483;55.828;37.488;2023-07-16T04:16:10;17.40;99.90
22633;DHT22;11483;55.828;37.488;2023-07-16T04:18:36;17.40;99.90
22633;DHT22;11483;55.828;37.488;2023-07-16T04:21:02;17.50;99.90
22633;DHT22;11483;55.828;37.488;2023-07-16T04:23:28;17.50;99.90
22633;DHT22;11483;55.828;37.488;2023-07-16T04:25:55;17.50;99.90
22633;DHT22;11483;55.828;37.488;2023-07-16T04:28:21;17.50;99.90
22633;DHT22;11483;55.828;37.488;2023-07-16T04:30:47;17.50;99.90
22633;DHT22;11483;55.828;37.488;2023-07-16T04:33:13;17.50;99.90
22633;DHT22;11483;55.828;37.488;2023-07-16T04:35:39;17.50;99.90
22633;DHT22;11483;55.828;37.488;2023-07-16T04:38:04;17.50;99.90
22633;DHT22;11483;55.828;37.488;2023-07-16T04:40:30;17.40;99.90
22633;DHT22;11483;55.828;37.488;2023-07-16T04:42:56;17.40;99.90
22633;DHT22;11483;55.828;37.488;2023-07-16T04:45:22;17.40;99.90
22633;DHT22;11483;55.828;37.488;2023-07-16T04:47:48;17.30;99.90
22633;DHT22;11483;55.828;37.488;2023-07-16T04:50:14;17.40;99.90
22633;DHT22;11483;55.828;37.488;2023-07-16T04:52:40;17.40;99.90
22633;DHT22;11483;55.828;37.488;2023-07-16T04:55:06;17.50;99.90
22633;DHT22;11483;55.828;37.488;2023-07-16T04:57:33;17.50;99.90
22633;DHT22;11483;55.828;37.488;2023-07-16T04:59:59;17.40;99.90
22633;DHT22;11483;55.828;37.488;2023-07-16T05:02:25;17.60;99.90
22633;DHT22;11483;55.828;37.488;2023-07-16T05:04:51;17.70;99.90
22633;DHT22;11483;55.828;37.488;2023-07-16T05:07:17;18.00;99.90
22633;DHT22;11483;55.828;37.488;2023-07-16T05:09:43;18.00;99.90
22633;DHT22;11483;55.828;37.488;2023-07-16T05:12:09;18.00;99.90
22633;DHT22;11483;55.828;37.488;2023-07-16T05:14:44;17.80;99.90
22633;DHT22;11483;55.828;37.488;2023-07-16T05:17:11;17.80;99.90
22633;DHT22;11483;55.828;37.488;2023-07-16T05:19:37;17.80;99.90
22633;DHT22;11483;55.828;37.488;2023-07-16T05:22:04;17.90;99.90
22633;DHT22;11483;55.828;37.488;2023-07-16T05:24:31;17.90;99.90
22633;DHT22;11483;55.828;37.488;2023-07-16T05:26:57;18.00;99.90
22633;DHT22;11483;55.828;37.488;2023-07-16T05:29:22;18.30;99.90
22633;DHT22;11483;55.828;37.488;2023-07-16T05:31:48;18.40;99.90
22633;DHT22;11483;55.828;37.488;2023-07-16T05:34:14;18.50;99.90
22633;DHT22;11483;55.828;37.488;2023-07-16T05:36:42;18.50;99.90
22633;DHT22;11483;55.828;37.488;2023-07-16T05:39:10;18.50;99.90
22633;DHT22;11483;55.828;37.488;2023-07-16T05:41:39;18.60;99.90
22633;DHT22;11483;55.828;37.488;2023-07-16T05:44:05;18.50;99.90
22633;DHT22;11483;55.828;37.488;2023-07-16T05:46:32;18.50;99.90
22633;DHT22;11483;55.828;37.488;2023-07-16T05:48:58;18.60;99.90
22633;DHT22;11483;55.828;37.488;2023-07-16T05:51:24;18.80;99.90
22633;DHT22;11483;55.828;37.488;2023-07-16T05:53:50;18.90;99.90
22633;DHT22;11483;55.828;37.488;2023-07-16T05:56:15;19.10;99.90
22633;DHT22;11483;55.828;37.488;2023-07-16T05:58:41;19.20;99.90
22633;DHT22;11483;55.828;37.488;2023-07-16T06:01:08;19.30;99.90
22633;DHT22;11483;55.828;37.488;2023-07-16T06:03:34;19.50;99.90
22633;DHT22;11483;55.828;37.488;2023-07-16T06:05:59;19.60;99.90
22633;DHT22;11483;55.828;37.488;2023-07-16T06:08:25;20.00;99.90
22633;DHT22;11483;55.828;37.488;2023-07-16T06:10:51;19.90;99.90
22633;DHT22;11483;55.828;37.488;2023-07-16T06:13:17;19.90;99.90
22633;DHT22;11483;55.828;37.488;2023-07-16T06:15:43;19.70;99.90
22633;DHT22;11483;55.828;37.488;2023-07-16T06:18:09;19.60;99.90
22633;DHT22;11483;55.828;37.488;2023-07-16T06:20:34;19.40;99.90
22633;DHT22;11483;55.828;37.488;2023-07-16T06:23:00;19.40;99.90
22633;DHT22;11483;55.828;37.488;2023-07-16T06:25:26;19.60;99.90
22633;DHT22;11483;55.828;37.488;2023-07-16T06:27:51;19.70;99.90
22633;DHT22;11483;55.828;37.488;2023-07-16T06:30:17;19.70;99.90
22633;DHT22;11483;55.828;37.488;2023-07-16T06:32:43;19.80;99.90
22633;DHT22;11483;55.828;37.488;2023-07-16T06:35:08;20.20;99.90
22633;DHT22;11483;55.828;37.488;2023-07-16T06:37:35;20.50;99.90
22633;DHT22;11483;55.828;37.488;2023-07-16T06:40:00;20.50;99.90
22633;DHT22;11483;55.828;37.488;2023-07-16T06:42:26;20.30;99.90
22633;DHT22;11483;55.828;37.488;2023-07-16T06:44:52;20.50;99.90
22633;DHT22;11483;55.828;37.488;2023-07-16T06:47:18;20.60;99.90
22633;DHT22;11483;55.828;37.488;2023-07-16T06:49:44;20.80;99.90
22633;DHT22;11483;55.828;37.488;2023-07-16T06:52:19;20.90;99.90
22633;DHT22;11483;55.828;37.488;2023-07-16T06:54:45;21.10;99.90
22633;DHT22;11483;55.828;37.488;2023-07-16T06:57:11;20.90;99.90
22633;DHT22;11483;55.828;37.488;2023-07-16T06:59:37;20.90;99.90
22633;DHT22;11483;55.828;37.488;2023-07-16T07:02:03;20.70;99.90
22633;DHT22;11483;55.828;37.488;2023-07-16T07:04:29;20.40;99.90
22633;DHT22;11483;55.828;37.488;2023-07-16T07:06:55;20.20;99.90
22633;DHT22;11483;55.828;37.488;2023-07-16T07:09:20;20.10;99.90
22633;DHT22;11483;55.828;37.488;2023-07-16T07:11:46;20.00;99.90
22633;DHT22;11483;55.828;37.488;2023-07-16T07:14:12;20.00;99.90
22633;DHT22;11483;55.828;37.488;2023-07-16T07:16:38;20.00;99.90
22633;DHT22;11483;55.828;37.488;2023-07-16T07:19:05;19.90;99.90
22633;DHT22;11483;55.828;37.488;2023-07-16T07:21:31;19.80;99.90
22633;DHT22;11483;55.828;37.488;2023-07-16T07:23:57;20.00;99.90
22633;DHT22;11483;55.828;37.488;2023-07-16T07:26:25;20.20;99.90
22633;DHT22;11483;55.828;37.488;2023-07-16T07:28:50;20.40;99.90
22633;DHT22;11483;55.828;37.488;2023-07-16T07:31:16;20.70;99.90
22633;DHT22;11483;55.828;37.488;2023-07-16T07:33:42;20.80;99.90
22633;DHT22;11483;55.828;37.488;2023-07-16T07:36:09;20.90;99.90
22633;DHT22;11483;55.828;37.488;2023-07-16T07:38:35;20.90;99.90
22633;DHT22;11483;55.828;37.488;2023-07-16T07:41:01;20.90;99.90
22633;DHT22;11483;55.828;37.488;2023-07-16T07:43:27;21.00;99.90
22633;DHT22;11483;55.828;37.488;2023-07-16T07:45:52;21.20;99.90
22633;DHT22;11483;55.828;37.488;2023-07-16T07:48:18;21.60;99.90
22633;DHT22;11483;55.828;37.488;2023-07-16T07:50:46;22.00;99.90
22633;DHT22;11483;55.828;37.488;2023-07-16T07:53:12;22.40;99.90
22633;DHT22;11483;55.828;37.488;2023-07-16T07:55:40;22.70;99.90
22633;DHT22;11483;55.828;37.488;2023-07-16T07:58:07;22.90;99.90
22633;DHT22;11483;55.828;37.488;2023-07-16T08:00:33;22.90;99.90
22633;DHT22;11483;55.828;37.488;2023-07-16T08:02:58;23.00;99.90
22633;DHT22;11483;55.828;37.488;2023-07-16T08:05:24;22.90;99.90
22633;DHT22;11483;55.828;37.488;2023-07-16T08:07:50;23.00;99.90
22633;DHT22;11483;55.828;37.488;2023-07-16T08:10:17;22.90;99.90
22633;DHT22;11483;55.828;37.488;2023-07-16T08:12:42;23.00;99.90
22633;DHT22;11483;55.828;37.488;2023-07-16T08:15:10;23.30;99.90
22633;DHT22;11483;55.828;37.488;2023-07-16T08:17:41;23.80;99.90
22633;DHT22;11483;55.828;37.488;2023-07-16T08:20:07;24.10;99.90
22633;DHT22;11483;55.828;37.488;2023-07-16T08:22:33;23.90;99.90
22633;DHT22;11483;55.828;37.488;2023-07-16T08:24:59;23.80;99.90
22633;DHT22;11483;55.828;37.488;2023-07-16T08:27:24;23.80;99.90
22633;DHT22;11483;55.828;37.488;2023-07-16T08:29:50;23.80;99.90
22633;DHT22;11483;55.828;37.488;2023-07-16T08:32:16;23.80;99.90
22633;DHT22;11483;55.828;37.488;2023-07-16T08:34:42;23.50;99.90
22633;DHT22;11483;55.828;37.488;2023-07-16T08:37:08;23.30;99.90
22633;DHT22;11483;55.828;37.488;2023-07-16T08:39:34;23.40;99.90
22633;DHT22;11483;55.828;37.488;2023-07-16T08:42:00;23.70;99.90
22633;DHT22;11483;55.828;37.488;2023-07-16T08:44:26;23.80;99.90
22633;DHT22;11483;55.828;37.488;2023-07-16T08:46:54;23.60;99.90
22633;DHT22;11483;55.828;37.488;2023-07-16T08:49:20;23.50;99.90
22633;DHT22;11483;55.828;37.488;2023-07-16T08:51:48;23.50;99.90
22633;DHT22;11483;55.828;37.488;2023-07-16T08:54:14;23.20;99.90
22633;DHT22;11483;55.828;37.488;2023-07-16T08:56:45;23.20;99.90
22633;DHT22;11483;55.828;37.488;2023-07-16T08:59:12;23.30;99.90
22633;DHT22;11483;55.828;37.488;2023-07-16T09:01:38;24.90;99.90
22633;DHT22;11483;55.828;37.488;2023-07-16T09:04:12;26.20;99.90
22633;DHT22;11483;55.828;37.488;2023-07-16T09:06:38;26.20;99.90
22633;DHT22;11483;55.828;37.488;2023-07-16T09:09:04;25.90;99.90
22633;DHT22;11483;55.828;37.488;2023-07-16T09:11:30;26.40;99.90
22633;DHT22;11483;55.828;37.488;2023-07-16T09:13:55;27.30;99.90
22633;DHT22;11483;55.828;37.488;2023-07-16T09:16:21;28.40;99.90
22633;DHT22;11483;55.828;37.488;2023-07-16T09:18:47;29.90;99.90
22633;DHT22;11483;55.828;37.488;2023-07-16T09:21:13;30.40;99.90
22633;DHT22;11483;55.828;37.488;2023-07-16T09:23:39;30.80;99.90
22633;DHT22;11483;55.828;37.488;2023-07-16T09:26:07;31.70;99.90
22633;DHT22;11483;55.828;37.488;2023-07-16T09:28:33;32.30;99.90
22633;DHT22;11483;55.828;37.488;2023-07-16T09:31:08;33.00;98.30
22633;DHT22;11483;55.828;37.488;2023-07-16T09:33:34;33.30;95.90
22633;DHT22;11483;55.828;37.488;2023-07-16T09:36:00;33.70;95.40
22633;DHT22;11483;55.828;37.488;2023-07-16T09:38:29;34.10;92.00
22633;DHT22;11483;55.828;37.488;2023-07-16T09:40:56;34.10;91.80
22633;DHT22;11483;55.828;37.488;2023-07-16T09:43:22;33.70;89.80
22633;DHT22;11483;55.828;37.488;2023-07-16T09:45:48;33.10;90.50
22633;DHT22;11483;55.828;37.488;2023-07-16T09:48:14;32.00;89.80
22633;DHT22;11483;55.828;37.488;2023-07-16T09:50:40;31.00;91.00
22633;DHT22;11483;55.828;37.488;2023-07-16T09:53:10;30.90;91.60
22633;DHT22;11483;55.828;37.488;2023-07-16T09:55:36;31.60;91.70
22633;DHT22;11483;55.828;37.488;2023-07-16T09:58:04;33.10;91.50
22633;DHT22;11483;55.828;37.488;2023-07-16T10:00:32;32.90;89.10
22633;DHT22;11483;55.828;37.488;2023-07-16T10:03:05;32.60;86.20
22633;DHT22;11483;55.828;37.488;2023-07-16T10:05:38;32.60;86.00
22633;DHT22;11483;55.828;37.488;2023-07-16T10:08:04;32.70;86.60
22633;DHT22;11483;55.828;37.488;2023-07-16T10:10:39;31.90;86.70
22633;DHT22;11483;55.828;37.488;2023-07-16T10:13:06;31.90;88.10
22633;DHT22;11483;55.828;37.488;2023-07-16T10:15:32;32.10;86.40
22633;DHT22;11483;55.828;37.488;2023-07-16T10:17:58;32.80;83.70
22633;DHT22;11483;55.828;37.488;2023-07-16T10:20:35;33.40;83.50
22633;DHT22;11483;55.828;37.488;2023-07-16T10:23:14;34.00;82.00
22633;DHT22;11483;55.828;37.488;2023-07-16T10:25:40;34.70;80.90
22633;DHT22;11483;55.828;37.488;2023-07-16T10:28:06;35.30;79.20
22633;DHT22;11483;55.828;37.488;2023-07-16T10:30:33;35.20;74.60
22633;DHT22;11483;55.828;37.488;2023-07-16T10:33:10;34.40;76.30
22633;DHT22;11483;55.828;37.488;2023-07-16T10:35:49;34.50;77.10
22633;DHT22;11483;55.828;37.488;2023-07-16T10:38:15;34.20;76.20
22633;DHT22;11483;55.828;37.488;2023-07-16T10:40:45;33.40;77.20
22633;DHT22;11483;55.828;37.488;2023-07-16T10:43:14;33.40;76.80
22633;DHT22;11483;55.828;37.488;2023-07-16T10:45:40;33.60;76.90
22633;DHT22;11483;55.828;37.488;2023-07-16T10:48:06;32.60;76.90
22633;DHT22;11483;55.828;37.488;2023-07-16T10:50:33;31.70;78.90
22633;DHT22;11483;55.828;37.488;2023-07-16T10:53:02;32.00;78.90
22633;DHT22;11483;55.828;37.488;2023-07-16T10:55:28;32.60;76.00
22633;DHT22;11483;55.828;37.488;2023-07-16T10:57:54;32.80;75.70
22633;DHT22;11483;55.828;37.488;2023-07-16T11:00:21;33.40;74.60
22633;DHT22;11483;55.828;37.488;2023-07-16T11:02:50;34.70;74.20
22633;DHT22;11483;55.828;37.488;2023-07-16T11:05:16;35.30;71.30
22633;DHT22;11483;55.828;37.488;2023-07-16T11:07:43;35.20;71.20
22633;DHT22;11483;55.828;37.488;2023-07-16T11:10:11;35.10;70.80
22633;DHT22;11483;55.828;37.488;2023-07-16T11:12:38;34.00;70.60
22633;DHT22;11483;55.828;37.488;2023-07-16T11:15:04;33.90;71.90
22633;DHT22;11483;55.828;37.488;2023-07-16T11:17:30;34.40;71.60
22633;DHT22;11483;55.828;37.488;2023-07-16T11:19:56;34.40;70.10
22633;DHT22;11483;55.828;37.488;2023-07-16T11:22:25;34.30;68.80
22633;DHT22;11483;55.828;37.488;2023-07-16T11:24:55;33.90;70.80
22633;DHT22;11483;55.828;37.488;2023-07-16T11:27:22;34.20;70.50
22633;DHT22;11483;55.828;37.488;2023-07-16T11:29:52;34.70;70.30
22633;DHT22;11483;55.828;37.488;2023-07-16T11:32:41;34.50;68.20
22633;DHT22;11483;55.828;37.488;2023-07-16T11:35:08;33.00;70.00
22633;DHT22;11483;55.828;37.488;2023-07-16T11:37:35;32.00;71.70
22633;DHT22;11483;55.828;37.488;2023-07-16T11:40:04;32.00;71.80
22633;DHT22;11483;55.828;37.488;2023-07-16T11:42:39;31.50;73.80
22633;DHT22;11483;55.828;37.488;2023-07-16T11:45:14;32.00;73.40
22633;DHT22;11483;55.828;37.488;2023-07-16T11:47:40;32.80;73.80
22633;DHT22;11483;55.828;37.488;2023-07-16T11:50:07;33.50;72.80
22633;DHT22;11483;55.828;37.488;2023-07-16T11:52:33;34.00;72.30
22633;DHT22;11483;55.828;37.488;2023-07-16T11:54:59;34.30;68.50
22633;DHT22;11483;55.828;37.488;2023-07-16T11:57:25;34.30;69.10
22633;DHT22;11483;55.828;37.488;2023-07-16T11:59:51;35.10;67.60
22633;DHT22;11483;55.828;37.488;2023-07-16T12:02:17;35.10;67.20
22633;DHT22;11483;55.828;37.488;2023-07-16T12:04:43;35.20;67.90
22633;DHT22;11483;55.828;37.488;2023-07-16T12:07:09;35.50;66.70
22633;DHT22;11483;55.828;37.488;2023-07-16T12:09:35;35.20;66.20
22633;DHT22;11483;55.828;37.488;2023-07-16T12:12:03;34.00;67.00
22633;DHT22;11483;55.828;37.488;2023-07-16T12:14:29;32.70;68.50
22633;DHT22;11483;55.828;37.488;2023-07-16T12:16:55;31.60;70.90
22633;DHT22;11483;55.828;37.488;2023-07-16T12:19:22;31.00;72.80
22633;DHT22;11483;55.828;37.488;2023-07-16T12:21:47;30.50;74.20
22633;DHT22;11483;55.828;37.488;2023-07-16T12:24:13;29.90;74.00
22633;DHT22;11483;55.828;37.488;2023-07-16T12:26:39;29.50;75.30
22633;DHT22;11483;55.828;37.488;2023-07-16T12:29:05;29.40;76.20
22633;DHT22;11483;55.828;37.488;2023-07-16T12:31:31;29.10;76.90
22633;DHT22;11483;55.828;37.488;2023-07-16T12:33:58;28.60;78.50
22633;DHT22;11483;55.828;37.488;2023-07-16T12:36:24;28.20;79.70
22633;DHT22;11483;55.828;37.488;2023-07-16T12:38:50;27.90;81.20
22633;DHT22;11483;55.828;37.488;2023-07-16T12:41:16;27.60;82.60
22633;DHT22;11483;55.828;37.488;2023-07-16T12:43:41;27.60;83.60
22633;DHT22;11483;55.828;37.488;2023-07-16T12:46:07;28.50;83.40
22633;DHT22;11483;55.828;37.488;2023-07-16T12:48:33;29.30;81.40
22633;DHT22;11483;55.828;37.488;2023-07-16T12:50:59;30.20;79.70
22633;DHT22;11483;55.828;37.488;2023-07-16T12:53:25;31.20;77.90
22633;DHT22;11483;55.828;37.488;2023-07-16T12:55:51;31.70;75.50
22633;DHT22;11483;55.828;37.488;2023-07-16T12:58:17;31.90;75.40
22633;DHT22;11483;55.828;37.488;2023-07-16T13:00:43;31.60;74.60
22633;DHT22;11483;55.828;37.488;2023-07-16T13:03:08;31.80;73.30
22633;DHT22;11483;55.828;37.488;2023-07-16T13:05:43;32.30;72.60
22633;DHT22;11483;55.828;37.488;2023-07-16T13:08:10;32.60;72.30
22633;DHT22;11483;55.828;37.488;2023-07-16T13:10:37;33.10;72.30
22633;DHT22;11483;55.828;37.488;2023-07-16T13:13:03;33.60;71.70
22633;DHT22;11483;55.828;37.488;2023-07-16T13:15:29;33.40;71.00
22633;DHT22;11483;55.828;37.488;2023-07-16T13:17:55;33.50;71.30
22633;DHT22;11483;55.828;37.488;2023-07-16T13:20:22;33.40;69.80
22633;DHT22;11483;55.828;37.488;2023-07-16T13:22:49;33.30;69.00
22633;DHT22;11483;55.828;37.488;2023-07-16T13:25:15;32.80;69.10
22633;DHT22;11483;55.828;37.488;2023-07-16T13:27:41;32.10;69.40
22633;DHT22;11483;55.828;37.488;2023-07-16T13:30:07;31.30;70.90
22633;DHT22;11483;55.828;37.488;2023-07-16T13:32:33;30.70;72.60
22633;DHT22;11483;55.828;37.488;2023-07-16T13:34:59;30.40;73.20
22633;DHT22;11483;55.828;37.488;2023-07-16T13:37:25;30.00;74.50
22633;DHT22;11483;55.828;37.488;2023-07-16T13:39:51;30.30;73.60
22633;DHT22;11483;55.828;37.488;2023-07-16T13:42:17;31.00;72.10
22633;DHT22;11483;55.828;37.488;2023-07-16T13:44:43;31.40;70.70
22633;DHT22;11483;55.828;37.488;2023-07-16T13:47:08;31.70;70.50
22633;DHT22;11483;55.828;37.488;2023-07-16T13:49:34;32.00;70.50
22633;DHT22;11483;55.828;37.488;2023-07-16T13:52:00;31.60;69.60
22633;DHT22;11483;55.828;37.488;2023-07-16T13:54:26;31.10;70.40
22633;DHT22;11483;55.828;37.488;2023-07-16T13:56:52;30.30;74.10
22633;DHT22;11483;55.828;37.488;2023-07-16T13:59:18;29.00;77.30
22633;DHT22;11483;55.828;37.488;2023-07-16T14:01:43;28.10;81.00
22633;DHT22;11483;55.828;37.488;2023-07-16T14:04:09;27.60;82.40
22633;DHT22;11483;55.828;37.488;2023-07-16T14:06:35;27.20;84.40
22633;DHT22;11483;55.828;37.488;2023-07-16T14:09:01;26.80;86.90
22633;DHT22;11483;55.828;37.488;2023-07-16T14:11:27;26.80;84.50
22633;DHT22;11483;55.828;37.488;2023-07-16T14:13:52;27.10;85.10
22633;DHT22;11483;55.828;37.488;2023-07-16T14:16:18;28.10;84.10
22633;DHT22;11483;55.828;37.488;2023-07-16T14:18:44;29.00;80.40
22633;DHT22;11483;55.828;37.488;2023-07-16T14:21:10;29.60;78.50
22633;DHT22;11483;55.828;37.488;2023-07-16T14:23:36;30.10;77.60
22633;DHT22;11483;55.828;37.488;2023-07-16T14:26:02;30.70;76.00
22633;DHT22;11483;55.828;37.488;2023-07-16T14:28:28;30.90;76.20
22633;DHT22;11483;55.828;37.488;2023-07-16T14:30:54;31.00;77.10
22633;DHT22;11483;55.828;37.488;2023-07-16T14:33:20;30.20;76.80
22633;DHT22;11483;55.828;37.488;2023-07-16T14:35:46;29.40;78.40
22633;DHT22;11483;55.828;37.488;2023-07-16T14:38:12;29.10;80.00
22633;DHT22;11483;55.828;37.488;2023-07-16T14:40:38;29.30;80.50
22633;DHT22;11483;55.828;37.488;2023-07-16T14:43:04;29.50;80.80
22633;DHT22;11483;55.828;37.488;2023-07-16T14:45:31;29.80;80.30
22633;DHT22;11483;55.828;37.488;2023-07-16T14:47:58;30.40;79.20
22633;DHT22;11483;55.828;37.488;2023-07-16T14:50:24;30.60;78.20
22633;DHT22;11483;55.828;37.488;2023-07-16T14:52:50;30.50;79.10
22633;DHT22;11483;55.828;37.488;2023-07-16T14:55:16;30.10;80.20
22633;DHT22;11483;55.828;37.488;2023-07-16T14:57:42;29.90;80.30
22633;DHT22;11483;55.828;37.488;2023-07-16T15:00:08;30.10;80.10
22633;DHT22;11483;55.828;37.488;2023-07-16T15:02:37;30.20;79.30
22633;DHT22;11483;55.828;37.488;2023-07-16T15:05:04;30.10;80.50
22633;DHT22;11483;55.828;37.488;2023-07-16T15:07:30;30.20;80.20
22633;DHT22;11483;55.828;37.488;2023-07-16T15:09:56;30.00;79.30
22633;DHT22;11483;55.828;37.488;2023-07-16T15:12:21;29.40;79.10
22633;DHT22;11483;55.828;37.488;2023-07-16T15:14:47;29.60;79.90
22633;DHT22;11483;55.828;37.488;2023-07-16T15:17:13;29.60;79.70
22633;DHT22;11483;55.828;37.488;2023-07-16T15:19:39;29.60;79.50